Time;durP1;ratioP1;P1;durP2;ratioP2;P2;SDS_P1;SDS_P2;PMS_P1;PMS_P2;Temp;Humidity;BMP_temperature;BMP_pressure;BME280_temperature;BME280_humidity;BME280_pressure;Samples;Min_cycle;Max_cycle;Signal;HPM_P1;HPM_P2
2021/11/04 00:00:31;;;;;;;18.85;12.95;;;;;;;;;;5037021;28;20200;-79
2021/11/04 00:02:58;;;;;;;19.33;13.97;;;;;;;;;;5035828;28;20239;-78
2021/11/04 00:05:26;;;;;;;20.03;12.37;;;;;;;;;;5034764;28;20937;-79
2021/11/04 00:07:56;;;;;;;19.93;13.20;;;;;;;;;;5035879;28;20443;-78
2021/11/04 00:10:25;;;;;;;17.07;11.77;;;;;;;;;;5036035;28;20466;-79
2021/11/04 00:12:52;;;;;;;18.30;12.47;;;;;;;;;;5039125;28;21004;-78
2021/11/04 00:15:19;;;;;;;17.73;13.10;;;;;;;;;;5039037;28;20481;-78
2021/11/04 00:17:46;;;;;;;17.35;13.63;;;;;;;;;;5038178;28;20732;-78
2021/11/04 00:20:14;;;;;;;20.55;14.15;;;;;;;;;;5036786;28;20617;-78
2021/11/04 00:22:41;;;;;;;19.23;12.88;;;;;;;;;;5039395;28;20262;-78
2021/11/04 00:25:09;;;;;;;18.35;13.10;;;;;;;;;;5038750;28;20207;-78
2021/11/04 00:27:37;;;;;;;20.35;13.10;;;;;;;;;;5037487;28;20258;-79
2021/11/04 00:30:05;;;;;;;17.97;12.97;;;;;;;;;;5037909;28;20258;-78
2021/11/04 00:32:32;;;;;;;18.05;14.18;;;;;;;;;;5037096;28;21005;-79
2021/11/04 00:34:59;;;;;;;17.33;13.10;;;;;;;;;;5035555;28;20228;-78
2021/11/04 00:37:25;;;;;;;19.05;14.32;;;;;;;;;;5035765;28;20203;-79
2021/11/04 00:39:53;;;;;;;15.60;12.30;;;;;;;;;;5035732;28;20196;-78
2021/11/04 00:42:20;;;;;;;18.65;13.50;;;;;;;;;;5035329;28;20714;-78
2021/11/04 00:44:48;;;;;;;19.88;13.23;;;;;;;;;;5035747;28;20625;-78
2021/11/04 00:47:15;;;;;;;21.30;14.45;;;;;;;;;;5035253;28;20622;-78
2021/11/04 00:49:42;;;;;;;18.63;14.55;;;;;;;;;;5035380;28;20595;-78
2021/11/04 00:52:09;;;;;;;22.88;14.40;;;;;;;;;;5035137;28;20730;-79
2021/11/04 00:54:36;;;;;;;19.85;15.98;;;;;;;;;;5035110;28;20621;-78
2021/11/04 00:57:03;;;;;;;21.98;16.23;;;;;;;;;;5034890;28;20254;-78
2021/11/04 00:59:30;;;;;;;20.38;15.90;;;;;;;;;;5037640;28;20208;-79
2021/11/04 01:01:58;;;;;;;22.05;15.32;;;;;;;;;;5035115;28;20266;-79
2021/11/04 01:04:25;;;;;;;23.88;16.33;;;;;;;;;;5035039;28;20230;-79
2021/11/04 01:06:52;;;;;;;18.20;14.23;;;;;;;;;;5035688;28;20211;-80
2021/11/04 01:09:19;;;;;;;24.08;16.10;;;;;;;;;;5035232;28;20242;-78
2021/11/04 01:11:46;;;;;;;21.60;16.58;;;;;;;;;;5035240;28;20279;-78
2021/11/04 01:14:13;;;;;;;23.48;15.60;;;;;;;;;;5035117;28;20231;-79
2021/11/04 01:16:40;;;;;;;20.95;16.55;;;;;;;;;;5036299;28;20212;-80
2021/11/04 01:19:12;;;;;;;27.60;18.27;;;;;;;;;;5036755;28;20218;-78
2021/11/04 01:21:38;;;;;;;23.25;16.52;;;;;;;;;;5035266;28;20299;-78
2021/11/04 01:24:06;;;;;;;22.02;17.77;;;;;;;;;;5035322;28;20222;-78
2021/11/04 01:26:33;;;;;;;23.65;17.52;;;;;;;;;;5035252;28;20241;-80
2021/11/04 01:29:00;;;;;;;29.17;18.27;;;;;;;;;;5035443;28;20208;-80
2021/11/04 01:31:27;;;;;;;23.67;16.83;;;;;;;;;;5034878;28;20266;-78
2021/11/04 01:33:54;;;;;;;22.10;16.70;;;;;;;;;;5035449;28;20203;-80
2021/11/04 01:36:23;;;;;;;25.08;17.50;;;;;;;;;;5035902;28;20234;-80
2021/11/04 01:38:50;;;;;;;21.02;15.90;;;;;;;;;;5036105;28;20235;-79
2021/11/04 01:41:17;;;;;;;26.05;17.02;;;;;;;;;;5035329;28;20250;-80
2021/11/04 01:43:44;;;;;;;23.45;18.00;;;;;;;;;;5035974;28;20215;-80
2021/11/04 01:46:12;;;;;;;22.80;16.20;;;;;;;;;;5035533;28;20229;-79
2021/11/04 01:48:39;;;;;;;24.27;17.02;;;;;;;;;;5039722;28;20231;-79
2021/11/04 01:51:06;;;;;;;26.27;17.40;;;;;;;;;;5044796;28;20288;-79
2021/11/04 01:53:35;;;;;;;23.27;17.00;;;;;;;;;;5039353;28;20212;-79
2021/11/04 01:56:01;;;;;;;26.23;18.27;;;;;;;;;;5038006;28;20207;-79
2021/11/04 01:58:28;;;;;;;24.75;17.55;;;;;;;;;;5037525;28;20204;-79
2021/11/04 02:00:56;;;;;;;26.23;17.55;;;;;;;;;;5036561;28;20227;-78
2021/11/04 02:03:25;;;;;;;28.02;18.10;;;;;;;;;;5035192;28;20216;-79
2021/11/04 02:05:56;;;;;;;22.95;17.42;;;;;;;;;;5035620;28;20812;-79
2021/11/04 02:08:26;;;;;;;25.88;17.23;;;;;;;;;;5037761;28;20274;-79
2021/11/04 02:10:57;;;;;;;24.83;16.80;;;;;;;;;;5039754;28;20242;-78
2021/11/04 02:13:27;;;;;;;27.15;18.63;;;;;;;;;;5038639;28;20896;-78
2021/11/04 02:15:56;;;;;;;24.65;18.88;;;;;;;;;;5060357;28;20236;-78
2021/11/04 02:18:24;;;;;;;26.92;18.70;;;;;;;;;;5061616;28;20191;-77
2021/11/04 02:20:55;;;;;;;28.08;19.17;;;;;;;;;;5061118;28;20187;-77
2021/11/04 02:23:28;;;;;;;28.48;19.75;;;;;;;;;;5061412;28;20668;-77
2021/11/04 02:25:56;;;;;;;26.38;18.02;;;;;;;;;;5060708;28;20188;-77
2021/11/04 02:28:23;;;;;;;26.98;18.73;;;;;;;;;;5053790;28;20196;-78
2021/11/04 02:30:50;;;;;;;31.45;18.58;;;;;;;;;;5039754;28;20733;-78
2021/11/04 02:33:18;;;;;;;27.35;19.13;;;;;;;;;;5039263;28;20211;-78
2021/11/04 02:35:51;;;;;;;29.20;19.33;;;;;;;;;;5040645;28;20667;-78
2021/11/04 02:38:19;;;;;;;30.10;20.63;;;;;;;;;;5043669;28;20192;-78
2021/11/04 02:40:46;;;;;;;29.13;20.55;;;;;;;;;;5044530;28;20266;-78
2021/11/04 02:43:15;;;;;;;30.38;22.02;;;;;;;;;;5037809;28;20605;-79
2021/11/04 02:45:42;;;;;;;26.92;19.63;;;;;;;;;;5036113;28;20242;-79
2021/11/04 02:48:09;;;;;;;32.20;20.48;;;;;;;;;;5035956;28;20204;-78
2021/11/04 02:50:36;;;;;;;29.60;21.88;;;;;;;;;;5036920;28;20255;-79
2021/11/04 02:53:04;;;;;;;29.92;20.88;;;;;;;;;;5037654;28;20719;-78
2021/11/04 02:55:34;;;;;;;35.15;21.58;;;;;;;;;;5037015;28;20207;-78
2021/11/04 02:58:04;;;;;;;33.80;23.23;;;;;;;;;;5037333;28;20698;-78
2021/11/04 03:00:32;;;;;;;36.85;23.75;;;;;;;;;;5035908;28;20227;-78
2021/11/04 03:02:59;;;;;;;27.05;20.13;;;;;;;;;;5035671;28;20231;-79
2021/11/04 03:05:26;;;;;;;37.88;23.33;;;;;;;;;;5035766;28;20235;-78
2021/11/04 03:07:53;;;;;;;28.52;21.88;;;;;;;;;;5035308;28;20204;-77
2021/11/04 03:10:20;;;;;;;32.22;21.73;;;;;;;;;;5035352;28;20678;-77
2021/11/04 03:12:47;;;;;;;32.92;22.85;;;;;;;;;;5035100;28;20281;-77
2021/11/04 03:15:16;;;;;;;34.85;22.60;;;;;;;;;;5035926;28;20345;-78
2021/11/04 03:17:47;;;;;;;34.28;23.85;;;;;;;;;;5035382;28;20254;-77
2021/11/04 03:20:15;;;;;;;36.42;23.95;;;;;;;;;;5036023;28;20191;-77
2021/11/04 03:22:42;;;;;;;35.08;22.80;;;;;;;;;;5035772;28;20251;-79
2021/11/04 03:25:10;;;;;;;37.63;22.55;;;;;;;;;;5035355;28;20234;-78
2021/11/04 03:27:39;;;;;;;38.90;24.08;;;;;;;;;;5035205;28;20262;-78
2021/11/04 03:30:07;;;;;;;32.90;22.98;;;;;;;;;;5034947;28;20207;-77
2021/11/04 03:32:35;;;;;;;39.85;25.42;;;;;;;;;;5034935;28;20310;-77
2021/11/04 03:35:03;;;;;;;38.35;23.95;;;;;;;;;;5035675;28;20203;-79
2021/11/04 03:37:31;;;;;;;32.03;23.08;;;;;;;;;;5036835;28;20306;-78
2021/11/04 03:39:59;;;;;;;36.95;24.52;;;;;;;;;;5035206;28;20231;-78
2021/11/04 03:42:26;;;;;;;33.88;23.08;;;;;;;;;;5035236;28;20228;-77
2021/11/04 03:44:54;;;;;;;42.15;26.10;;;;;;;;;;5035234;28;20219;-78
2021/11/04 03:47:22;;;;;;;39.50;25.25;;;;;;;;;;5035538;28;20199;-77
2021/11/04 03:49:51;;;;;;;39.47;27.15;;;;;;;;;;5035754;28;20709;-78
2021/11/04 03:52:20;;;;;;;42.00;24.30;;;;;;;;;;5041251;28;20231;-78
2021/11/04 03:54:47;;;;;;;42.92;26.35;;;;;;;;;;5042652;28;20200;-78
2021/11/04 03:57:14;;;;;;;40.83;26.00;;;;;;;;;;5042928;28;20215;-78
2021/11/04 03:59:41;;;;;;;45.70;26.80;;;;;;;;;;5041883;28;20203;-78
2021/11/04 04:02:09;;;;;;;44.67;29.38;;;;;;;;;;5036609;28;20231;-78
2021/11/04 04:04:36;;;;;;;47.42;28.25;;;;;;;;;;5036746;28;20576;-79
2021/11/04 04:07:03;;;;;;;43.22;28.10;;;;;;;;;;5036667;28;20208;-79
2021/11/04 04:09:31;;;;;;;43.45;31.45;;;;;;;;;;5035182;28;20434;-80
2021/11/04 04:11:58;;;;;;;47.63;30.90;;;;;;;;;;5037297;28;20664;-80
2021/11/04 04:14:25;;;;;;;44.78;28.20;;;;;;;;;;5037308;28;20231;-80
2021/11/04 04:16:52;;;;;;;50.53;30.60;;;;;;;;;;5036676;28;20231;-78
2021/11/04 04:19:22;;;;;;;46.70;29.90;;;;;;;;;;5036015;28;20298;-79
2021/11/04 04:21:49;;;;;;;42.15;28.90;;;;;;;;;;5036921;28;20222;-79
2021/11/04 04:24:16;;;;;;;42.10;27.25;;;;;;;;;;5036696;28;20203;-78
2021/11/04 04:26:44;;;;;;;45.80;31.17;;;;;;;;;;5035194;28;20211;-79
2021/11/04 04:29:11;;;;;;;45.05;30.90;;;;;;;;;;5035043;28;20235;-78
2021/11/04 04:31:38;;;;;;;47.70;29.42;;;;;;;;;;5034480;28;20254;-80
2021/11/04 04:34:05;;;;;;;50.30;32.17;;;;;;;;;;5036584;28;20204;-79
2021/11/04 04:36:32;;;;;;;47.83;30.23;;;;;;;;;;5046963;28;20204;-79
2021/11/04 04:38:59;;;;;;;47.38;30.65;;;;;;;;;;5048613;28;20214;-79
2021/11/04 04:41:26;;;;;;;48.22;30.33;;;;;;;;;;5053276;28;20243;-79
2021/11/04 04:43:54;;;;;;;46.55;31.08;;;;;;;;;;5054393;28;20210;-79
2021/11/04 04:46:21;;;;;;;52.43;34.57;;;;;;;;;;5047598;28;20502;-80
2021/11/04 04:48:48;;;;;;;49.35;30.63;;;;;;;;;;5045163;28;20959;-78
2021/11/04 04:51:17;;;;;;;49.53;31.45;;;;;;;;;;5036740;28;20235;-80
2021/11/04 04:53:44;;;;;;;51.95;31.70;;;;;;;;;;5042217;28;20219;-80
2021/11/04 04:56:11;;;;;;;48.72;31.77;;;;;;;;;;5041881;28;20231;-80
2021/11/04 04:58:38;;;;;;;53.72;31.13;;;;;;;;;;5039986;28;20208;-80
2021/11/04 05:01:06;;;;;;;51.90;33.65;;;;;;;;;;5043935;28;20192;-78
2021/11/04 05:03:33;;;;;;;46.65;29.70;;;;;;;;;;5075039;22;20296;-82
2021/11/04 05:06:00;;;;;;;58.35;32.50;;;;;;;;;;5059429;28;20294;-80
2021/11/04 05:08:27;;;;;;;52.03;32.05;;;;;;;;;;5059787;28;20206;-82
2021/11/04 05:10:54;;;;;;;45.45;30.38;;;;;;;;;;5059843;28;20226;-81
2021/11/04 05:13:21;;;;;;;56.88;33.45;;;;;;;;;;5060819;28;20222;-81
2021/11/04 05:15:48;;;;;;;53.40;31.45;;;;;;;;;;5062607;28;20214;-79
2021/11/04 05:18:16;;;;;;;50.38;30.88;;;;;;;;;;5067374;28;20199;-80
2021/11/04 05:20:43;;;;;;;48.22;31.48;;;;;;;;;;5069092;28;20195;-81
2021/11/04 05:23:10;;;;;;;47.88;31.80;;;;;;;;;;5060487;28;20230;-81
2021/11/04 05:25:37;;;;;;;52.50;33.22;;;;;;;;;;5060450;28;20202;-82
2021/11/04 05:28:04;;;;;;;53.03;31.45;;;;;;;;;;5059896;28;20256;-82
2021/11/04 05:30:31;;;;;;;59.38;33.78;;;;;;;;;;5059667;28;20203;-82
2021/11/04 05:32:58;;;;;;;47.05;31.30;;;;;;;;;;5060309;28;20226;-80
2021/11/04 05:35:28;;;;;;;47.35;30.90;;;;;;;;;;5067772;28;20211;-79
2021/11/04 05:37:55;;;;;;;51.10;30.88;;;;;;;;;;5062661;28;20187;-79
2021/11/04 05:40:22;;;;;;;57.75;32.85;;;;;;;;;;5058822;28;20226;-80
2021/11/04 05:42:50;;;;;;;54.67;32.75;;;;;;;;;;5061100;28;20285;-80
2021/11/04 05:45:17;;;;;;;49.08;30.85;;;;;;;;;;5062110;28;20219;-82
2021/11/04 05:47:44;;;;;;;55.53;31.73;;;;;;;;;;5061109;28;20210;-80
2021/11/04 05:50:11;;;;;;;51.15;31.15;;;;;;;;;;5061990;28;20322;-81
2021/11/04 05:52:39;;;;;;;61.03;33.50;;;;;;;;;;5061639;28;20231;-81
2021/11/04 05:55:06;;;;;;;54.33;33.25;;;;;;;;;;5063258;28;20227;-81
2021/11/04 05:57:33;;;;;;;51.60;31.80;;;;;;;;;;5060058;28;20207;-81
2021/11/04 06:00:00;;;;;;;49.67;32.53;;;;;;;;;;5059844;28;20230;-81
2021/11/04 06:02:27;;;;;;;53.83;31.95;;;;;;;;;;5061127;28;20235;-81
2021/11/04 06:04:54;;;;;;;49.40;32.55;;;;;;;;;;5060474;28;20233;-81
2021/11/04 06:07:25;;;;;;;50.30;30.80;;;;;;;;;;5059829;28;20214;-83
2021/11/04 06:09:53;;;;;;;56.67;33.72;;;;;;;;;;5059326;28;20251;-81
2021/11/04 06:12:20;;;;;;;54.15;32.15;;;;;;;;;;5060254;28;20697;-81
2021/11/04 06:14:47;;;;;;;52.30;33.20;;;;;;;;;;5060767;28;20215;-80
2021/11/04 06:17:14;;;;;;;50.33;30.08;;;;;;;;;;5080471;28;20202;-78
2021/11/04 06:19:41;;;;;;;52.38;31.88;;;;;;;;;;5080202;28;20187;-79
2021/11/04 06:22:08;;;;;;;58.17;34.72;;;;;;;;;;5079387;28;20241;-79
2021/11/04 06:24:35;;;;;;;52.92;31.77;;;;;;;;;;5072765;28;20202;-80
2021/11/04 06:27:03;;;;;;;60.50;33.55;;;;;;;;;;5060259;28;20234;-80
2021/11/04 06:29:30;;;;;;;54.05;33.47;;;;;;;;;;5060155;28;20203;-80
2021/11/04 06:31:57;;;;;;;56.95;31.60;;;;;;;;;;5060407;28;20650;-80
2021/11/04 06:34:24;;;;;;;54.55;34.83;;;;;;;;;;5062883;28;20281;-79
2021/11/04 06:36:51;;;;;;;53.03;30.83;;;;;;;;;;5061061;28;20246;-82
2021/11/04 06:39:19;;;;;;;51.25;31.15;;;;;;;;;;5059881;28;20735;-82
2021/11/04 06:41:46;;;;;;;50.92;34.60;;;;;;;;;;5059836;28;20540;-82
2021/11/04 06:44:14;;;;;;;58.92;33.55;;;;;;;;;;5060171;28;20618;-81
2021/11/04 06:46:42;;;;;;;59.08;33.42;;;;;;;;;;5063338;28;20202;-81
2021/11/04 06:49:10;;;;;;;52.28;33.17;;;;;;;;;;5059472;28;20666;-81
2021/11/04 06:51:40;;;;;;;55.50;32.05;;;;;;;;;;5060399;28;20250;-82
2021/11/04 06:54:08;;;;;;;60.50;32.42;;;;;;;;;;5072162;28;20186;-81
2021/11/04 06:56:39;;;;;;;59.72;34.05;;;;;;;;;;5078485;28;20233;-80
2021/11/04 06:59:06;;;;;;;60.08;33.10;;;;;;;;;;5078285;28;20196;-80
2021/11/04 07:01:35;;;;;;;55.92;32.47;;;;;;;;;;5077428;28;20203;-81
2021/11/04 07:04:04;;;;;;;55.30;33.97;;;;;;;;;;5068299;28;20210;-81
2021/11/04 07:06:32;;;;;;;58.88;32.67;;;;;;;;;;5064012;28;20207;-81
2021/11/04 07:09:00;;;;;;;57.17;32.88;;;;;;;;;;5063119;28;20224;-81
2021/11/04 07:11:29;;;;;;;60.17;33.63;;;;;;;;;;5061634;28;20222;-82
2021/11/04 07:13:56;;;;;;;55.35;34.65;;;;;;;;;;5059966;28;20465;-82
2021/11/04 07:16:24;;;;;;;59.67;33.65;;;;;;;;;;5060111;28;20207;-81
2021/11/04 07:18:53;;;;;;;62.83;32.17;;;;;;;;;;5059588;28;20374;-82
2021/11/04 07:21:22;;;;;;;55.28;34.53;;;;;;;;;;5059155;28;20237;-82
2021/11/04 07:23:52;;;;;;;57.35;33.90;;;;;;;;;;5059641;28;20202;-82
2021/11/04 07:26:22;;;;;;;51.55;32.55;;;;;;;;;;5060359;28;20195;-82
2021/11/04 07:28:53;;;;;;;60.22;33.88;;;;;;;;;;5058660;28;20207;-80
2021/11/04 07:31:22;;;;;;;58.65;31.23;;;;;;;;;;5058453;28;20193;-82
2021/11/04 07:33:51;;;;;;;55.30;33.80;;;;;;;;;;5060933;28;20563;-81
2021/11/04 07:36:20;;;;;;;53.58;30.85;;;;;;;;;;5060106;28;20211;-82
2021/11/04 07:38:50;;;;;;;63.83;34.97;;;;;;;;;;5059130;28;20211;-81
2021/11/04 07:41:17;;;;;;;62.58;33.03;;;;;;;;;;5059353;28;20222;-80
2021/11/04 07:43:44;;;;;;;50.83;31.23;;;;;;;;;;5059254;28;20234;-79
2021/11/04 07:46:11;;;;;;;52.35;32.40;;;;;;;;;;5058389;28;20198;-81
2021/11/04 07:48:39;;;;;;;64.85;34.53;;;;;;;;;;5059368;28;20207;-82
2021/11/04 07:51:18;;;;;;;59.30;34.08;;;;;;;;;;5060642;28;20257;-81
2021/11/04 07:53:47;;;;;;;64.57;34.35;;;;;;;;;;5059652;28;20245;-82
2021/11/04 07:56:14;;;;;;;54.22;31.60;;;;;;;;;;5060666;28;20596;-81
2021/11/04 07:58:41;;;;;;;52.90;32.75;;;;;;;;;;5058357;28;20211;-81
2021/11/04 08:01:08;;;;;;;57.15;33.28;;;;;;;;;;5059135;28;20229;-81
2021/11/04 08:03:35;;;;;;;55.38;31.30;;;;;;;;;;5058760;28;20234;-82
2021/11/04 08:06:02;;;;;;;52.78;34.00;;;;;;;;;;5059170;28;20620;-82
2021/11/04 08:08:29;;;;;;;62.22;31.20;;;;;;;;;;5061895;28;20238;-81
2021/11/04 08:11:04;;;;;;;56.33;33.83;;;;;;;;;;5058584;28;20206;-81
2021/11/04 08:13:31;;;;;;;58.78;31.23;;;;;;;;;;5059007;28;20312;-81
2021/11/04 08:15:58;;;;;;;57.03;30.88;;;;;;;;;;5059811;28;20286;-81
2021/11/04 08:18:25;;;;;;;57.40;31.85;;;;;;;;;;5060258;28;20203;-81
2021/11/04 08:20:52;;;;;;;61.95;31.48;;;;;;;;;;5061686;28;20294;-82
2021/11/04 08:23:19;;;;;;;67.68;35.53;;;;;;;;;;5060530;28;20242;-81
2021/11/04 08:25:47;;;;;;;55.90;32.10;;;;;;;;;;5062572;28;20211;-79
2021/11/04 08:28:15;;;;;;;60.70;34.55;;;;;;;;;;5064451;28;20199;-79
2021/11/04 08:30:42;;;;;;;61.25;34.38;;;;;;;;;;5068750;28;20203;-79
2021/11/04 08:33:09;;;;;;;57.85;33.35;;;;;;;;;;5071892;28;20231;-79
2021/11/04 08:35:36;;;;;;;64.78;35.83;;;;;;;;;;5071157;28;20207;-78
2021/11/04 08:38:03;;;;;;;55.10;32.47;;;;;;;;;;5070296;28;20207;-79
2021/11/04 08:40:30;;;;;;;54.83;30.90;;;;;;;;;;5071384;28;20221;-78
2021/11/04 08:42:58;;;;;;;61.05;30.75;;;;;;;;;;5069876;28;20219;-79
2021/11/04 08:45:27;;;;;;;51.40;31.40;;;;;;;;;;5071477;28;20234;-78
2021/11/04 08:47:54;;;;;;;56.80;32.65;;;;;;;;;;5069112;28;20747;-78
2021/11/04 08:50:21;;;;;;;60.70;31.95;;;;;;;;;;5066101;28;20211;-79
2021/11/04 08:52:52;;;;;;;52.25;30.27;;;;;;;;;;5061484;28;20763;-78
2021/11/04 08:55:19;;;;;;;71.45;34.05;;;;;;;;;;5062170;28;20210;-79
2021/11/04 08:57:46;;;;;;;51.78;29.02;;;;;;;;;;5059366;28;20203;-78
2021/11/04 09:00:13;;;;;;;52.58;29.42;;;;;;;;;;5062435;28;20230;-79
2021/11/04 09:02:43;;;;;;;52.15;29.23;;;;;;;;;;5063265;28;20357;-78
2021/11/04 09:05:10;;;;;;;56.03;29.05;;;;;;;;;;5064046;28;20230;-80
2021/11/04 09:07:38;;;;;;;54.30;30.42;;;;;;;;;;5066821;28;20229;-80
2021/11/04 09:10:07;;;;;;;47.92;28.92;;;;;;;;;;5065551;28;20207;-79
2021/11/04 09:12:34;;;;;;;51.00;27.17;;;;;;;;;;5065098;28;20223;-80
2021/11/04 09:15:01;;;;;;;46.50;27.00;;;;;;;;;;5063316;28;20203;-80
2021/11/04 09:17:28;;;;;;;49.78;28.67;;;;;;;;;;5066159;28;20206;-80
2021/11/04 09:19:57;;;;;;;52.13;26.77;;;;;;;;;;5068898;28;20202;-78
2021/11/04 09:22:24;;;;;;;45.65;29.05;;;;;;;;;;5070809;28;20218;-79
2021/11/04 09:24:51;;;;;;;52.15;30.30;;;;;;;;;;5072334;28;20195;-79
2021/11/04 09:27:18;;;;;;;43.58;27.60;;;;;;;;;;5076083;28;20211;-80
2021/11/04 09:29:46;;;;;;;46.97;25.75;;;;;;;;;;5073734;28;20233;-79
2021/11/04 09:32:13;;;;;;;52.35;28.58;;;;;;;;;;5073192;28;20246;-79
2021/11/04 09:34:40;;;;;;;49.17;27.52;;;;;;;;;;5075167;28;20203;-78
2021/11/04 09:37:08;;;;;;;49.75;26.33;;;;;;;;;;5076687;28;20257;-77
2021/11/04 09:39:35;;;;;;;41.63;24.10;;;;;;;;;;5075644;28;20236;-79
2021/11/04 09:42:03;;;;;;;47.15;27.30;;;;;;;;;;5071185;28;20222;-79
2021/11/04 09:44:31;;;;;;;45.08;25.70;;;;;;;;;;5068129;28;20226;-79
2021/11/04 09:46:58;;;;;;;37.53;22.73;;;;;;;;;;5067868;28;20207;-79
2021/11/04 09:49:27;;;;;;;40.40;25.92;;;;;;;;;;5067855;28;20221;-80
2021/11/04 09:51:54;;;;;;;44.67;25.95;;;;;;;;;;5066450;28;20290;-79
2021/11/04 09:54:23;;;;;;;47.65;25.58;;;;;;;;;;5064473;28;20230;-80
2021/11/04 09:56:50;;;;;;;39.25;24.90;;;;;;;;;;5064897;28;20340;-80
2021/11/04 09:59:17;;;;;;;44.50;25.40;;;;;;;;;;5064667;28;20297;-80
2021/11/04 10:01:46;;;;;;;47.17;24.90;;;;;;;;;;5063194;28;20817;-80
2021/11/04 10:04:13;;;;;;;52.22;25.17;;;;;;;;;;5061083;28;20241;-81
2021/11/04 10:06:40;;;;;;;36.20;22.30;;;;;;;;;;5064260;28;20199;-79
2021/11/04 10:09:09;;;;;;;35.35;22.17;;;;;;;;;;5063650;28;20248;-79
2021/11/04 10:11:41;;;;;;;37.65;22.45;;;;;;;;;;5062458;28;20187;-78
2021/11/04 10:14:09;;;;;;;41.55;23.05;;;;;;;;;;5061726;28;20211;-79
2021/11/04 10:16:36;;;;;;;39.35;23.10;;;;;;;;;;5061084;28;20203;-79
2021/11/04 10:19:04;;;;;;;35.20;20.65;;;;;;;;;;5061685;28;20195;-81
2021/11/04 10:21:32;;;;;;;45.00;24.35;;;;;;;;;;5060706;28;20677;-81
2021/11/04 10:23:59;;;;;;;44.83;21.45;;;;;;;;;;5064946;28;20218;-78
2021/11/04 10:26:27;;;;;;;36.42;21.38;;;;;;;;;;5078393;28;20202;-78
2021/11/04 10:29:00;;;;;;;37.15;19.40;;;;;;;;;;5076082;28;20282;-77
2021/11/04 10:31:35;;;;;;;33.13;19.80;;;;;;;;;;5074601;28;20253;-78
2021/11/04 10:34:03;;;;;;;29.00;17.98;;;;;;;;;;5063996;28;20689;-79
2021/11/04 10:36:30;;;;;;;30.85;17.52;;;;;;;;;;5062130;28;20211;-79
2021/11/04 10:38:57;;;;;;;29.13;18.17;;;;;;;;;;5071301;28;20229;-78
2021/11/04 10:41:25;;;;;;;30.77;17.35;;;;;;;;;;5071830;28;20268;-79
2021/11/04 10:43:53;;;;;;;25.98;16.40;;;;;;;;;;5065539;28;20257;-81
2021/11/04 10:46:22;;;;;;;24.55;14.60;;;;;;;;;;5065112;28;20206;-80
2021/11/04 10:48:49;;;;;;;24.33;16.17;;;;;;;;;;5064127;28;20233;-81
2021/11/04 10:51:17;;;;;;;27.70;15.75;;;;;;;;;;5063998;28;20211;-80
2021/11/04 10:53:44;;;;;;;24.40;15.40;;;;;;;;;;5064282;28;20348;-80
2021/11/04 10:56:16;;;;;;;33.22;16.67;;;;;;;;;;5068566;28;20233;-80
2021/11/04 10:58:43;;;;;;;20.45;14.15;;;;;;;;;;5065080;28;20229;-79
2021/11/04 11:01:24;;;;;;;20.33;14.75;;;;;;;;;;5059964;28;20692;-79
2021/11/04 11:03:54;;;;;;;24.75;15.07;;;;;;;;;;5065745;22;20231;-77
2021/11/04 11:06:22;;;;;;;24.65;15.80;;;;;;;;;;5039414;28;20198;-78
2021/11/04 11:08:49;;;;;;;24.63;14.80;;;;;;;;;;5043515;28;20258;-78
2021/11/04 11:11:19;;;;;;;24.95;15.73;;;;;;;;;;5039180;28;20211;-77
2021/11/04 11:13:47;;;;;;;21.67;13.98;;;;;;;;;;5038255;28;20223;-78
2021/11/04 11:16:15;;;;;;;23.60;14.20;;;;;;;;;;5039216;28;20199;-78
2021/11/04 11:18:42;;;;;;;18.08;12.88;;;;;;;;;;5038901;28;20226;-78
2021/11/04 11:21:11;;;;;;;27.15;14.10;;;;;;;;;;5038746;28;20242;-76
2021/11/04 11:23:38;;;;;;;21.63;14.48;;;;;;;;;;5038157;28;20567;-77
2021/11/04 11:26:06;;;;;;;25.67;14.48;;;;;;;;;;5039120;28;20223;-78
2021/11/04 11:28:34;;;;;;;18.33;11.30;;;;;;;;;;5038838;28;20199;-78
2021/11/04 11:31:14;;;;;;;20.50;12.20;;;;;;;;;;5043123;28;20203;-78
2021/11/04 11:33:42;;;;;;;18.83;13.20;;;;;;;;;;5045649;28;20219;-77
2021/11/04 11:36:11;;;;;;;21.15;13.00;;;;;;;;;;5057889;28;20704;-80
2021/11/04 11:38:59;;;;;;;22.15;14.73;;;;;;;;;;5059506;28;20178;-80
2021/11/04 11:41:28;;;;;;;21.55;12.57;;;;;;;;;;5055110;28;20210;-82
2021/11/04 11:43:55;;;;;;;18.20;12.50;;;;;;;;;;5058828;28;20227;-80
2021/11/04 11:46:22;;;;;;;16.67;12.00;;;;;;;;;;5054692;28;20214;-81
2021/11/04 11:49:04;;;;;;;21.15;10.70;;;;;;;;;;5047865;28;20211;-82
2021/11/04 11:51:38;;;;;;;17.88;11.95;;;;;;;;;;5042878;28;20242;-81
2021/11/04 11:54:05;;;;;;;16.88;12.10;;;;;;;;;;5043832;28;20231;-81
2021/11/04 11:56:34;;;;;;;16.73;12.95;;;;;;;;;;5043880;28;20556;-81
2021/11/04 11:59:16;;;;;;;18.25;12.73;;;;;;;;;;5044412;28;20231;-81
2021/11/04 12:01:47;;;;;;;16.02;11.27;;;;;;;;;;5049011;28;20188;-81
2021/11/04 12:04:23;;;;;;;15.95;12.25;;;;;;;;;;5041864;28;20232;-81
2021/11/04 12:06:50;;;;;;;18.80;10.35;;;;;;;;;;5043731;28;20188;-81
2021/11/04 12:09:34;;;;;;;14.30;10.90;;;;;;;;;;5044570;28;20265;-81
2021/11/04 12:12:02;;;;;;;14.48;9.40;;;;;;;;;;5045872;28;20199;-81
2021/11/04 12:14:30;;;;;;;17.50;10.68;;;;;;;;;;5048591;28;20216;-81
2021/11/04 12:17:16;;;;;;;17.02;10.88;;;;;;;;;;5047571;28;20204;-80
2021/11/04 12:19:47;;;;;;;16.00;10.25;;;;;;;;;;5046101;28;20191;-82
2021/11/04 12:22:25;;;;;;;21.15;11.57;;;;;;;;;;5048862;28;20277;-80
2021/11/04 12:24:53;;;;;;;16.23;10.82;;;;;;;;;;5045539;28;20270;-82
2021/11/04 12:27:21;;;;;;;12.90;9.70;;;;;;;;;;5044431;28;20208;-81
2021/11/04 12:29:49;;;;;;;15.45;10.80;;;;;;;;;;5045384;28;20203;-81
2021/11/04 12:32:17;;;;;;;13.40;10.55;;;;;;;;;;5043380;28;20207;-80
2021/11/04 12:34:44;;;;;;;16.00;11.18;;;;;;;;;;5041399;28;20219;-81
2021/11/04 12:37:13;;;;;;;18.30;11.98;;;;;;;;;;5047442;28;20229;-82
2021/11/04 12:39:44;;;;;;;18.10;11.75;;;;;;;;;;5048561;28;20235;-81
2021/11/04 12:42:14;;;;;;;14.50;10.75;;;;;;;;;;5047446;28;20238;-80
2021/11/04 12:44:44;;;;;;;17.63;11.38;;;;;;;;;;5048810;28;20686;-80
2021/11/04 12:47:11;;;;;;;17.75;11.38;;;;;;;;;;5047205;28;20196;-82
2021/11/04 12:49:39;;;;;;;17.00;10.18;;;;;;;;;;5042714;28;20234;-80
2021/11/04 12:52:07;;;;;;;17.05;11.48;;;;;;;;;;5042840;28;20207;-81
2021/11/04 12:54:35;;;;;;;14.02;10.68;;;;;;;;;;5044866;28;20223;-80
2021/11/04 12:57:04;;;;;;;21.15;12.43;;;;;;;;;;5044817;28;20200;-80
2021/11/04 12:59:32;;;;;;;16.23;11.10;;;;;;;;;;5045583;28;20203;-81
2021/11/04 13:02:08;;;;;;;17.77;10.88;;;;;;;;;;5042245;28;20208;-81
2021/11/04 13:04:35;;;;;;;14.50;10.07;;;;;;;;;;5040744;28;20229;-80
2021/11/04 13:07:04;;;;;;;14.23;9.30;;;;;;;;;;5040091;28;20242;-80
2021/11/04 13:09:32;;;;;;;16.08;10.40;;;;;;;;;;5040500;28;20203;-80
2021/11/04 13:12:06;;;;;;;15.77;9.57;;;;;;;;;;5039103;28;20204;-80
2021/11/04 13:14:48;;;;;;;15.13;9.98;;;;;;;;;;5040862;28;20220;-80
2021/11/04 13:17:16;;;;;;;13.60;9.77;;;;;;;;;;5044044;28;20674;-80
2021/11/04 13:19:55;;;;;;;12.13;8.90;;;;;;;;;;5050597;28;20215;-81
2021/11/04 13:22:22;;;;;;;21.73;11.75;;;;;;;;;;5045464;28;20638;-80
2021/11/04 13:24:49;;;;;;;14.02;9.20;;;;;;;;;;5040703;28;20258;-81
2021/11/04 13:27:17;;;;;;;14.48;9.07;;;;;;;;;;5041863;28;20207;-80
2021/11/04 13:29:50;;;;;;;13.85;9.30;;;;;;;;;;5047286;28;20208;-81
2021/11/04 13:32:19;;;;;;;14.70;9.95;;;;;;;;;;5051547;28;20675;-80
2021/11/04 13:34:47;;;;;;;14.13;9.88;;;;;;;;;;5051828;28;20238;-80
2021/11/04 13:37:15;;;;;;;15.75;9.85;;;;;;;;;;5049143;28;20204;-80
2021/11/04 13:39:42;;;;;;;14.65;9.60;;;;;;;;;;5044718;28;20204;-81
2021/11/04 13:42:20;;;;;;;15.23;10.38;;;;;;;;;;5043019;28;20212;-81
2021/11/04 13:44:47;;;;;;;20.10;11.48;;;;;;;;;;5051495;28;20192;-80
2021/11/04 13:47:14;;;;;;;17.67;11.57;;;;;;;;;;5043111;28;20207;-81
2021/11/04 13:49:51;;;;;;;14.48;10.85;;;;;;;;;;5040879;28;20208;-81
2021/11/04 13:52:25;;;;;;;18.08;10.70;;;;;;;;;;5040446;28;20587;-81
2021/11/04 13:54:52;;;;;;;15.73;11.15;;;;;;;;;;5049879;28;20302;-80
2021/11/04 13:57:19;;;;;;;15.52;11.32;;;;;;;;;;5056674;28;20203;-79
2021/11/04 13:59:51;;;;;;;22.02;13.43;;;;;;;;;;5056129;28;20203;-80
2021/11/04 14:02:20;;;;;;;20.50;14.30;;;;;;;;;;5055245;28;20258;-79
2021/11/04 14:04:52;;;;;;;22.30;15.07;;;;;;;;;;5056401;28;20192;-80
2021/11/04 14:07:28;;;;;;;24.85;15.85;;;;;;;;;;5054939;28;20222;-80
2021/11/04 14:09:56;;;;;;;19.88;13.38;;;;;;;;;;5054355;28;20261;-79
2021/11/04 14:12:26;;;;;;;20.90;14.18;;;;;;;;;;5049995;28;20238;-78
2021/11/04 14:14:54;;;;;;;16.13;11.55;;;;;;;;;;5050023;28;20218;-79
2021/11/04 14:17:23;;;;;;;18.13;11.98;;;;;;;;;;5051042;28;20685;-80
2021/11/04 14:19:52;;;;;;;16.98;10.32;;;;;;;;;;5047905;28;20204;-81
2021/11/04 14:22:19;;;;;;;18.80;11.07;;;;;;;;;;5042790;28;20673;-80
2021/11/04 14:24:46;;;;;;;15.43;10.07;;;;;;;;;;5043134;28;20243;-80